createdAt,value
2019-04-22T00:01:45.589Z,17.70
2019-04-22T00:04:32.296Z,17.90
2019-04-22T00:07:17.402Z,17.90
2019-04-22T00:09:59.580Z,18.00
2019-04-22T00:12:37.334Z,18.10
2019-04-22T00:15:01.925Z,17.50
2019-04-22T00:17:45.139Z,17.60
2019-04-22T00:20:14.796Z,16.60
2019-04-22T00:22:46.222Z,16.30
2019-04-22T00:25:32.274Z,16.70
2019-04-22T00:28:02.459Z,16.80
2019-04-22T00:30:35.995Z,16.70
2019-04-22T00:33:29.060Z,16.80
2019-04-22T00:36:02.765Z,16.90
2019-04-22T00:38:44.106Z,16.60
2019-04-22T00:41:25.607Z,16.40
2019-04-22T00:44:02.607Z,16.30
2019-04-22T00:46:36.135Z,16.10
2019-04-22T00:49:56.545Z,16.30
2019-04-22T00:54:26.083Z,16.30
2019-04-22T00:56:58.771Z,16.80
2019-04-22T00:59:32.113Z,17.00
2019-04-22T01:02:06.789Z,17.20
2019-04-22T01:04:39.253Z,17.60
2019-04-22T01:07:17.554Z,18.00
2019-04-22T01:09:56.175Z,18.10
2019-04-22T01:12:28.610Z,17.90
2019-04-22T01:21:52.850Z,16.70
2019-04-22T01:24:22.102Z,17.10
2019-04-22T01:26:53.771Z,17.10
2019-04-22T01:29:26.197Z,17.30
2019-04-22T01:31:50.619Z,17.80
2019-04-22T01:34:38.810Z,18.10
2019-04-22T01:37:20.234Z,18.40
2019-04-22T01:42:47.339Z,17.70
2019-04-22T01:45:15.308Z,17.60
2019-04-22T01:47:43.815Z,17.70
2019-04-22T01:50:23.908Z,17.60
2019-04-22T01:52:59.131Z,17.10
2019-04-22T01:55:32.502Z,16.70
2019-04-22T01:57:59.610Z,16.50
2019-04-22T02:00:46.871Z,16.20
2019-04-22T02:03:17.764Z,16.30
2019-04-22T02:05:51.090Z,16.10
2019-04-22T02:08:31.180Z,15.70
2019-04-22T02:11:00.988Z,15.70
2019-04-22T02:13:41.332Z,15.60
2019-04-22T02:16:42.303Z,15.50
2019-04-22T02:19:45.659Z,15.10
2019-04-22T02:22:17.611Z,15.00
2019-04-22T02:24:56.358Z,15.00
2019-04-22T02:27:37.603Z,14.90
2019-04-22T02:29:57.894Z,14.90
2019-04-22T02:36:30.392Z,14.70
2019-04-22T02:47:54.130Z,14.30
2019-04-22T02:50:19.738Z,14.20
2019-04-22T02:53:02.022Z,14.20
2019-04-22T02:55:32.398Z,14.10
2019-04-22T02:58:03.636Z,14.10
2019-04-22T03:00:46.333Z,14.00
2019-04-22T03:03:31.266Z,13.90
2019-04-22T03:08:39.411Z,13.60
2019-04-22T03:11:15.265Z,13.60
2019-04-22T03:13:47.207Z,13.50
2019-04-22T03:16:26.552Z,13.40
2019-04-22T04:22:22.150Z,11.40
2019-04-22T05:53:25.456Z,9.70
2019-04-22T06:00:59.991Z,9.60
2019-04-22T06:11:17.168Z,9.40
2019-04-22T06:21:11.467Z,9.30
2019-04-22T06:24:38.967Z,9.30
2019-04-22T06:28:16.113Z,9.30
2019-04-22T06:38:36.081Z,9.00
2019-04-22T06:41:24.477Z,8.90
2019-04-22T06:47:43.975Z,8.90
2019-04-22T06:50:52.800Z,8.80
2019-04-22T06:57:20.755Z,8.70
2019-04-22T07:27:40.470Z,8.50
2019-04-22T07:39:35.152Z,8.30
2019-04-22T07:42:41.817Z,8.30
2019-04-22T07:49:39.518Z,8.20
2019-04-22T08:12:34.735Z,8.10
2019-04-22T08:15:33.139Z,8.10
2019-04-22T08:18:37.558Z,8.10
2019-04-22T08:21:36.288Z,8.10
2019-04-22T08:24:56.117Z,8.10
2019-04-22T08:27:57.092Z,8.20
2019-04-22T08:33:39.797Z,8.20
2019-04-22T08:37:24.113Z,8.30
2019-04-22T08:40:15.000Z,8.40
2019-04-22T08:47:08.656Z,8.40
2019-04-22T08:50:33.716Z,8.40
2019-04-22T08:53:57.418Z,8.40
2019-04-22T09:00:07.158Z,8.30
2019-04-22T09:03:10.933Z,8.30
2019-04-22T09:09:11.551Z,8.40
2019-04-22T09:12:46.711Z,8.40
2019-04-22T09:15:42.202Z,8.40
2019-04-22T09:18:40.972Z,8.40
2019-04-22T09:21:45.588Z,8.40
2019-04-22T09:28:24.703Z,8.50
2019-04-22T09:31:11.706Z,8.40
2019-04-22T09:34:22.513Z,8.40
2019-04-22T09:43:17.186Z,8.50
2019-04-22T09:45:52.625Z,8.50
2019-04-22T09:48:50.367Z,8.40
2019-04-22T09:51:58.892Z,8.40
2019-04-22T09:55:01.183Z,8.30
2019-04-22T09:57:52.073Z,8.30
2019-04-22T10:04:48.270Z,8.50
2019-04-22T10:07:39.422Z,8.40
2019-04-22T10:10:46.464Z,8.50
2019-04-22T10:22:39.430Z,8.50
2019-04-22T10:25:24.689Z,8.50
2019-04-22T10:28:42.288Z,8.40
2019-04-22T10:47:40.342Z,7.90
2019-04-22T10:51:06.578Z,7.80
2019-04-22T10:57:42.376Z,7.60
2019-04-22T11:04:13.315Z,7.50
2019-04-22T11:07:51.429Z,7.40
2019-04-22T11:14:08.974Z,7.30
2019-04-22T11:27:30.955Z,7.40
2019-04-22T11:30:36.696Z,7.50
2019-04-22T11:37:05.279Z,7.50
2019-04-22T11:40:45.983Z,7.50
2019-04-22T11:43:47.388Z,7.60
2019-04-22T11:46:49.549Z,7.70
2019-04-22T11:49:49.976Z,7.80
2019-04-22T11:53:28.909Z,7.80
2019-04-22T11:56:31.235Z,7.90
2019-04-22T11:59:46.998Z,8.00
2019-04-22T12:02:41.037Z,8.10
2019-04-22T12:05:34.329Z,8.10
2019-04-22T12:08:29.089Z,8.10
2019-04-22T12:11:34.526Z,8.10
2019-04-22T12:18:15.289Z,8.00
2019-04-22T12:24:34.031Z,8.10
2019-04-22T12:27:47.283Z,8.10
2019-04-22T12:31:05.954Z,8.10
2019-04-22T12:40:39.479Z,8.20
2019-04-22T12:46:44.024Z,8.20
2019-04-22T12:49:57.187Z,8.30
2019-04-22T12:53:19.849Z,8.40
2019-04-22T12:56:47.789Z,8.40
2019-04-22T13:00:27.311Z,8.40
2019-04-22T13:03:36.155Z,8.60
2019-04-22T13:10:53.392Z,8.50
2019-04-22T13:21:16.167Z,8.60
2019-04-22T13:24:59.727Z,8.70
2019-04-22T13:28:49.323Z,8.70
2019-04-22T13:32:22.642Z,8.70
2019-04-22T13:35:52.134Z,8.70
2019-04-22T13:38:55.206Z,8.70
2019-04-22T13:42:07.525Z,8.70
2019-04-22T13:48:46.250Z,8.80
2019-04-22T13:52:16.226Z,8.80
2019-04-22T13:55:02.008Z,8.80
2019-04-22T14:00:22.599Z,8.90
2019-04-22T14:07:01.080Z,8.80
2019-04-22T14:10:16.417Z,8.80
2019-04-22T14:13:58.614Z,8.80
2019-04-22T14:20:56.666Z,9.00
2019-04-22T14:24:21.696Z,9.00
2019-04-22T14:28:00.208Z,9.00
2019-04-22T14:37:58.222Z,9.30
2019-04-22T14:41:42.345Z,9.30
2019-04-22T14:52:13.023Z,9.50
2019-04-22T15:06:31.785Z,9.60
2019-04-22T15:14:05.422Z,9.60
2019-04-22T15:29:15.605Z,10.10
2019-04-22T15:32:39.062Z,10.40
2019-04-22T16:33:13.090Z,12.40
2019-04-22T16:35:48.846Z,12.80
2019-04-22T16:38:22.520Z,13.10
2019-04-22T16:50:50.400Z,13.00
2019-04-22T16:56:35.127Z,13.40
2019-04-22T17:39:30.227Z,14.80
2019-04-22T18:17:38.646Z,14.60
2019-04-22T18:19:59.489Z,14.60
2019-04-22T18:45:54.862Z,14.30
2019-04-22T18:48:12.463Z,14.40
2019-04-22T18:51:13.221Z,14.40
2019-04-22T18:53:54.023Z,14.40
2019-04-22T18:59:25.420Z,14.20
2019-04-22T19:01:53.618Z,14.30
2019-04-22T19:04:37.958Z,14.30
2019-04-22T19:11:00.576Z,14.10
2019-04-22T19:23:41.081Z,13.80
2019-04-22T19:26:15.516Z,13.90
2019-04-22T19:28:45.161Z,14.10
2019-04-22T19:31:37.276Z,14.10
2019-04-22T19:34:00.789Z,14.20
2019-04-22T19:36:35.607Z,14.10
2019-04-22T19:38:58.911Z,14.20
2019-04-22T19:41:42.078Z,14.20
2019-04-22T19:44:16.007Z,14.10
2019-04-22T19:47:06.399Z,14.10
2019-04-22T19:49:33.409Z,14.10
2019-04-22T19:52:06.070Z,14.30
2019-04-22T19:54:38.900Z,14.30
2019-04-22T19:57:03.639Z,14.40
2019-04-22T19:59:45.440Z,14.10
2019-04-22T20:02:40.942Z,14.10
2019-04-22T20:23:14.437Z,13.70
2019-04-22T20:25:48.297Z,13.80
2019-04-22T20:28:32.228Z,13.90
2019-04-22T20:31:03.247Z,14.00
2019-04-22T20:44:06.566Z,13.60
2019-04-22T20:53:27.986Z,13.50
2019-04-22T21:16:26.909Z,13.10
2019-04-22T21:18:57.769Z,13.30
2019-04-22T21:21:33.435Z,13.30
2019-04-22T21:23:58.356Z,13.40
2019-04-22T21:26:39.750Z,13.30
2019-04-22T21:29:12.662Z,13.20
2019-04-22T21:31:52.648Z,13.30
2019-04-22T21:34:20.619Z,13.10
2019-04-22T21:37:12.203Z,13.00
2019-04-22T21:39:36.642Z,12.90
2019-04-22T21:42:12.648Z,13.00
2019-04-22T21:44:47.036Z,13.00
2019-04-22T21:47:28.969Z,13.00
